createdAt,value
2018-06-25T00:01:31.520Z,64.70
2018-06-25T00:03:59.747Z,64.60
2018-06-25T00:06:27.959Z,64.30
2018-06-25T00:08:56.208Z,64.50
2018-06-25T00:11:24.479Z,64.80
2018-06-25T00:13:52.703Z,64.90
2018-06-25T00:16:20.907Z,64.80
2018-06-25T00:18:49.127Z,65.00
2018-06-25T00:21:17.331Z,65.30
2018-06-25T00:23:45.528Z,65.50
2018-06-25T00:26:13.736Z,66.40
2018-06-25T00:28:41.975Z,65.60
2018-06-25T00:31:10.238Z,65.90
2018-06-25T00:36:06.406Z,65.30
2018-06-25T00:38:35.001Z,65.60
2018-06-25T00:41:03.206Z,66.10
2018-06-25T00:43:31.410Z,66.40
2018-06-25T00:48:27.597Z,67.20
2018-06-25T00:50:55.812Z,67.40
2018-06-25T00:53:24.030Z,67.50
2018-06-25T00:55:52.291Z,66.90
2018-06-25T01:00:48.500Z,66.90
2018-06-25T01:03:16.706Z,67.10
2018-06-25T01:08:12.892Z,66.80
2018-06-25T01:10:41.116Z,66.90
2018-06-25T01:13:09.326Z,66.70
2018-06-25T01:15:37.548Z,67.40
2018-06-25T01:18:05.865Z,67.70
2018-06-25T01:20:34.445Z,68.00
2018-06-25T01:23:02.652Z,67.70
2018-06-25T01:25:30.862Z,67.60
2018-06-25T01:27:59.069Z,66.50
2018-06-25T01:30:27.295Z,70.30
2018-06-25T01:32:55.534Z,62.40
2018-06-25T01:35:23.768Z,63.00
2018-06-25T01:37:51.973Z,63.00
2018-06-25T01:40:20.386Z,61.60
2018-06-25T01:42:48.594Z,60.40
2018-06-25T01:45:16.808Z,59.80
2018-06-25T01:47:45.041Z,60.50
2018-06-25T01:50:13.258Z,61.50
2018-06-25T01:52:41.459Z,62.10
2018-06-25T01:55:09.668Z,62.50
2018-06-25T01:57:37.841Z,64.60
2018-06-25T02:00:06.103Z,64.00
2018-06-25T02:02:34.273Z,64.50
2018-06-25T02:05:02.426Z,64.40
2018-06-25T02:07:30.591Z,65.70
2018-06-25T02:09:58.779Z,67.30
2018-06-25T02:12:26.943Z,67.80
2018-06-25T02:14:55.095Z,68.20
2018-06-25T02:17:23.276Z,69.20
2018-06-25T02:19:51.437Z,69.80
2018-06-25T02:22:19.750Z,69.80
2018-06-25T02:24:47.918Z,69.00
2018-06-25T02:27:16.080Z,69.60
2018-06-25T02:29:44.248Z,70.50
2018-06-25T02:32:12.415Z,70.60
2018-06-25T02:34:40.572Z,71.20
2018-06-25T02:37:08.731Z,71.90
2018-06-25T02:39:36.891Z,72.40
2018-06-25T02:42:05.076Z,72.60
2018-06-25T02:47:01.181Z,72.80
2018-06-25T02:49:29.374Z,72.80
2018-06-25T02:51:57.544Z,73.00
2018-06-25T02:54:25.973Z,73.50
2018-06-25T02:56:54.238Z,73.20
2018-06-25T02:59:22.469Z,73.70
2018-06-25T03:01:50.714Z,74.20
2018-06-25T03:04:18.932Z,73.50
2018-06-25T03:06:47.143Z,73.50
2018-06-25T03:09:15.371Z,73.70
2018-06-25T03:11:43.612Z,74.20
2018-06-25T03:14:11.856Z,74.90
2018-06-25T03:16:40.101Z,75.10
2018-06-25T03:19:08.442Z,75.00
2018-06-25T03:21:36.792Z,75.00
2018-06-25T03:24:05.015Z,74.60
2018-06-25T03:26:33.263Z,75.10
2018-06-25T03:29:01.497Z,75.70
2018-06-25T03:33:57.777Z,76.70
2018-06-25T03:36:25.999Z,81.40
2018-06-25T03:38:54.222Z,76.10
2018-06-25T03:41:22.465Z,76.60
2018-06-25T03:43:50.707Z,76.70
2018-06-25T03:46:18.936Z,76.70
2018-06-25T03:48:47.174Z,77.30
2018-06-25T03:51:15.387Z,76.10
2018-06-25T03:53:43.633Z,77.00
2018-06-25T03:56:11.859Z,77.60
2018-06-25T03:58:40.090Z,77.10
2018-06-25T04:01:08.393Z,77.20
2018-06-25T04:03:36.529Z,78.10
2018-06-25T04:06:04.970Z,77.00
2018-06-25T04:08:33.188Z,77.00
2018-06-25T04:11:01.407Z,77.20
2018-06-25T04:13:29.631Z,77.60
2018-06-25T04:15:57.859Z,77.70
2018-06-25T04:18:26.080Z,76.90
2018-06-25T04:20:54.311Z,77.30
2018-06-25T04:23:22.615Z,78.20
2018-06-25T04:25:50.822Z,78.40
2018-06-25T04:28:19.041Z,79.00
2018-06-25T04:30:47.302Z,79.40
2018-06-25T04:35:43.458Z,78.80
2018-06-25T04:38:11.705Z,89.10
2018-06-25T04:40:39.946Z,79.60
2018-06-25T04:43:08.198Z,80.70
2018-06-25T04:45:36.428Z,80.40
2018-06-25T04:50:32.637Z,81.00
2018-06-25T04:53:00.867Z,80.80
2018-06-25T04:55:29.093Z,81.10
2018-06-25T04:57:57.272Z,80.90
2018-06-25T05:00:25.442Z,81.00
2018-06-25T05:02:53.625Z,80.60
2018-06-25T05:05:21.794Z,80.10
2018-06-25T05:10:17.980Z,81.20
2018-06-25T05:12:46.176Z,81.50
2018-06-25T05:15:14.349Z,81.50
2018-06-25T05:17:42.537Z,82.20
2018-06-25T05:20:10.718Z,82.30
2018-06-25T05:22:38.903Z,82.20
2018-06-25T05:25:07.070Z,82.80
2018-06-25T05:27:35.241Z,81.00
2018-06-25T05:30:03.466Z,81.20
2018-06-25T05:32:31.658Z,81.40
2018-06-25T05:34:59.830Z,80.70
2018-06-25T05:37:28.076Z,80.30
2018-06-25T05:39:56.288Z,80.30
2018-06-25T05:42:24.480Z,80.20
2018-06-25T05:44:53.116Z,80.70
2018-06-25T05:47:21.802Z,79.80
2018-06-25T05:49:50.181Z,80.70
2018-06-25T05:52:18.471Z,79.80
2018-06-25T05:54:46.650Z,79.10
2018-06-25T05:57:14.839Z,79.10
2018-06-25T05:59:43.385Z,79.20
2018-06-25T06:02:11.559Z,80.30
2018-06-25T06:04:39.725Z,80.70
2018-06-25T06:07:07.897Z,80.60
2018-06-25T06:09:36.096Z,81.00
2018-06-25T06:12:04.334Z,80.50
2018-06-25T06:17:00.484Z,80.70
2018-06-25T06:19:28.865Z,81.90
2018-06-25T06:21:57.089Z,80.90
2018-06-25T06:24:25.281Z,80.00
2018-06-25T06:26:53.436Z,80.50
2018-06-25T06:29:21.616Z,80.80
2018-06-25T06:31:49.802Z,80.60
2018-06-25T06:34:18.001Z,80.70
2018-06-25T06:36:46.163Z,83.20
2018-06-25T06:39:15.469Z,83.80
2018-06-25T06:41:45.069Z,79.00
2018-06-25T06:46:41.217Z,79.30
2018-06-25T06:51:37.790Z,79.20
2018-06-25T06:54:06.003Z,78.60
2018-06-25T06:56:34.434Z,78.80
2018-06-25T06:59:02.739Z,78.80
2018-06-25T07:01:31.043Z,79.40
2018-06-25T07:03:59.281Z,79.60
2018-06-25T07:06:27.614Z,78.50
2018-06-25T07:08:55.904Z,79.00
2018-06-25T07:11:24.235Z,79.60
2018-06-25T07:13:52.478Z,79.70
2018-06-25T07:16:20.687Z,79.70
2018-06-25T07:18:48.924Z,79.40
2018-06-25T07:21:17.155Z,78.90
2018-06-25T07:23:45.399Z,78.50
2018-06-25T07:26:18.728Z,79.00
2018-06-25T07:28:46.991Z,78.90
2018-06-25T07:36:11.079Z,78.40
2018-06-25T07:38:39.268Z,78.00
2018-06-25T07:41:07.439Z,77.30
2018-06-25T07:43:35.615Z,77.20
2018-06-25T07:48:31.751Z,77.10
2018-06-25T07:50:59.955Z,77.50
2018-06-25T07:53:28.247Z,77.90
2018-06-25T07:55:56.313Z,78.00
2018-06-25T07:58:24.626Z,77.80
2018-06-25T08:00:52.868Z,77.10
2018-06-25T08:03:21.101Z,77.80
2018-06-25T08:05:49.353Z,77.90
2018-06-25T08:08:17.599Z,77.40
2018-06-25T08:13:13.817Z,79.50
2018-06-25T08:15:42.089Z,78.50
2018-06-25T08:18:10.320Z,77.90
2018-06-25T08:20:38.534Z,77.60
2018-06-25T08:23:06.790Z,75.80
2018-06-25T08:25:35.070Z,78.00
2018-06-25T08:28:03.287Z,78.10
2018-06-25T08:30:31.524Z,79.10
2018-06-25T08:32:59.749Z,79.20
2018-06-25T08:37:55.943Z,77.90
2018-06-25T08:40:24.165Z,79.40
2018-06-25T08:45:20.327Z,81.10
2018-06-25T08:47:48.541Z,78.00
2018-06-25T08:50:16.754Z,78.70
2018-06-25T08:52:44.969Z,78.40
2018-06-25T08:55:13.197Z,77.80
2018-06-25T08:57:41.429Z,78.80
2018-06-25T09:00:09.668Z,78.40
2018-06-25T09:02:37.890Z,78.00
2018-06-25T09:05:06.184Z,78.50
2018-06-25T09:07:34.363Z,79.20
2018-06-25T09:10:03.562Z,78.60
2018-06-25T09:12:31.785Z,78.60
2018-06-25T09:15:00.058Z,78.70
2018-06-25T09:17:28.266Z,78.30
2018-06-25T09:19:56.483Z,77.40
2018-06-25T09:24:52.667Z,78.90
2018-06-25T09:27:20.881Z,78.30
2018-06-25T09:29:49.106Z,76.40
2018-06-25T09:32:17.322Z,77.90
2018-06-25T09:34:48.506Z,78.60
2018-06-25T09:39:45.298Z,75.70
2018-06-25T09:42:13.499Z,74.90
2018-06-25T09:44:41.717Z,76.10
2018-06-25T09:47:10.072Z,75.60
2018-06-25T09:52:06.307Z,74.70
2018-06-25T09:54:34.525Z,75.40
2018-06-25T09:57:02.753Z,74.70
2018-06-25T09:59:30.967Z,75.00
2018-06-25T10:01:59.183Z,74.00
2018-06-25T10:04:27.416Z,73.10
2018-06-25T10:06:55.621Z,75.70
2018-06-25T10:09:23.855Z,75.70
2018-06-25T10:14:20.019Z,73.20
2018-06-25T10:16:48.245Z,72.40
2018-06-25T10:19:16.478Z,71.60
2018-06-25T10:21:44.714Z,71.70
2018-06-25T10:24:12.928Z,70.40
2018-06-25T10:26:41.161Z,71.90
2018-06-25T10:29:09.368Z,71.60
2018-06-25T10:31:37.600Z,72.60
2018-06-25T10:34:05.833Z,72.00
2018-06-25T10:36:34.051Z,71.90
2018-06-25T10:39:02.282Z,72.20
2018-06-25T10:41:30.524Z,71.70
2018-06-25T10:43:58.721Z,71.10
2018-06-25T10:46:26.944Z,72.00
2018-06-25T10:48:55.188Z,72.70
2018-06-25T10:51:23.469Z,70.50
2018-06-25T10:53:51.697Z,71.30
2018-06-25T10:56:19.935Z,71.30
2018-06-25T10:58:48.157Z,71.20
2018-06-25T11:01:16.376Z,70.60
2018-06-25T11:03:44.602Z,69.00
2018-06-25T11:06:12.812Z,71.50
2018-06-25T11:08:41.128Z,72.00
2018-06-25T11:11:09.718Z,71.50
2018-06-25T11:16:06.473Z,70.70
2018-06-25T11:18:34.758Z,68.90
2018-06-25T11:23:30.961Z,68.90
2018-06-25T11:25:59.199Z,68.60
2018-06-25T11:28:27.687Z,69.60
2018-06-25T11:30:56.211Z,66.90
2018-06-25T11:33:24.431Z,65.20
2018-06-25T11:35:52.752Z,66.40
2018-06-25T11:38:20.969Z,66.90
2018-06-25T11:40:49.187Z,65.20
2018-06-25T11:43:17.389Z,63.80
2018-06-25T11:45:45.618Z,62.60
2018-06-25T11:48:14.073Z,62.60
2018-06-25T11:50:42.352Z,73.50
2018-06-25T11:53:10.568Z,66.40
2018-06-25T11:55:38.775Z,75.30
2018-06-25T11:58:07.027Z,60.40
2018-06-25T12:00:35.342Z,62.60
2018-06-25T12:03:03.663Z,61.70
2018-06-25T12:05:31.801Z,61.50
2018-06-25T12:08:00.058Z,61.10
2018-06-25T12:10:28.326Z,60.60
2018-06-25T12:12:56.499Z,60.30
2018-06-25T12:15:24.727Z,58.90
2018-06-25T12:17:52.963Z,58.00
2018-06-25T12:20:21.178Z,61.20
2018-06-25T12:22:49.407Z,58.60
2018-06-25T12:25:17.635Z,60.90
2018-06-25T12:27:45.859Z,59.10
2018-06-25T12:30:14.099Z,61.10
2018-06-25T12:32:42.301Z,62.00
2018-06-25T12:35:10.516Z,65.50
2018-06-25T12:37:38.760Z,59.70
2018-06-25T12:40:06.955Z,57.30
2018-06-25T12:42:35.187Z,58.70
2018-06-25T12:45:03.386Z,58.30
2018-06-25T12:49:59.559Z,56.60
2018-06-25T12:52:27.792Z,60.30
2018-06-25T12:54:56.017Z,56.00
2018-06-25T12:57:24.226Z,57.30
2018-06-25T12:59:52.460Z,56.90
2018-06-25T13:02:20.785Z,57.00
2018-06-25T13:04:49.021Z,55.30
2018-06-25T13:07:17.242Z,55.10
2018-06-25T13:09:45.490Z,54.70
2018-06-25T13:12:13.707Z,55.30
2018-06-25T13:17:09.917Z,53.30
2018-06-25T13:19:38.140Z,51.90
2018-06-25T13:22:06.931Z,53.50
2018-06-25T13:24:35.167Z,52.60
2018-06-25T13:27:03.376Z,53.50
2018-06-25T13:29:31.599Z,53.20
2018-06-25T13:31:59.824Z,51.80
2018-06-25T13:34:28.048Z,54.50
2018-06-25T13:36:56.264Z,53.90
2018-06-25T13:39:24.535Z,52.00
2018-06-25T13:41:52.741Z,51.90
2018-06-25T13:44:21.041Z,51.60
2018-06-25T13:51:45.142Z,57.70
2018-06-25T13:54:13.357Z,56.90
2018-06-25T13:59:09.523Z,52.20
2018-06-25T14:01:37.743Z,53.30
2018-06-25T14:04:05.972Z,52.30
2018-06-25T14:09:02.086Z,50.60
2018-06-25T14:11:30.257Z,51.20
2018-06-25T14:13:58.433Z,51.10
2018-06-25T14:16:26.627Z,53.30
2018-06-25T14:18:54.941Z,52.80
2018-06-25T14:21:23.112Z,51.60
2018-06-25T14:23:56.687Z,52.00
2018-06-25T14:26:29.086Z,51.00
2018-06-25T14:28:57.247Z,50.80
2018-06-25T14:31:28.102Z,50.60
2018-06-25T14:34:01.489Z,50.10
2018-06-25T14:36:29.642Z,50.90
2018-06-25T14:38:57.822Z,50.30
2018-06-25T14:41:25.994Z,50.30
2018-06-25T14:43:54.185Z,51.30
2018-06-25T14:46:22.351Z,50.40
2018-06-25T14:48:50.533Z,50.10
2018-06-25T14:51:18.696Z,47.90
2018-06-25T14:53:46.859Z,48.80
2018-06-25T14:56:15.042Z,51.50
2018-06-25T14:58:43.224Z,49.80
2018-06-25T15:01:11.401Z,49.50
2018-06-25T15:03:39.570Z,50.40
2018-06-25T15:06:07.745Z,50.00
2018-06-25T15:08:35.906Z,49.90
2018-06-25T15:11:04.092Z,50.10
2018-06-25T15:13:32.247Z,51.40
2018-06-25T15:16:00.486Z,50.30
2018-06-25T15:18:28.674Z,49.70
2018-06-25T15:20:56.849Z,49.30
2018-06-25T15:25:52.993Z,49.60
2018-06-25T15:28:21.172Z,50.60
2018-06-25T15:30:49.346Z,50.20
2018-06-25T15:33:17.551Z,51.90
2018-06-25T15:35:45.717Z,51.60
2018-06-25T15:38:13.884Z,51.60
2018-06-25T15:40:42.028Z,50.10
2018-06-25T15:43:10.194Z,49.40
2018-06-25T15:45:38.354Z,50.60
2018-06-25T15:48:06.632Z,52.30
2018-06-25T15:53:02.651Z,51.10
2018-06-25T15:55:30.798Z,59.30
2018-06-25T15:57:58.980Z,51.80
2018-06-25T16:00:27.141Z,52.40
2018-06-25T16:02:55.320Z,51.50
2018-06-25T16:05:23.613Z,49.20
2018-06-25T16:07:51.971Z,49.70
2018-06-25T16:10:20.125Z,48.90
2018-06-25T16:12:48.286Z,49.70
2018-06-25T16:17:44.410Z,50.10
2018-06-25T16:20:12.577Z,49.30
2018-06-25T16:22:40.761Z,50.60
2018-06-25T16:25:08.937Z,49.00
2018-06-25T16:27:37.372Z,51.20
2018-06-25T16:30:05.861Z,51.20
2018-06-25T16:32:34.026Z,51.30
2018-06-25T16:35:02.197Z,51.30
2018-06-25T16:37:30.349Z,52.30
2018-06-25T16:39:58.497Z,52.20
2018-06-25T16:42:26.658Z,52.90
2018-06-25T16:44:54.819Z,51.50
2018-06-25T16:47:22.968Z,51.70
2018-06-25T16:49:51.141Z,51.40
2018-06-25T16:52:19.320Z,52.10
2018-06-25T16:54:47.481Z,50.80
2018-06-25T16:57:15.688Z,51.10
2018-06-25T16:59:43.926Z,51.30
2018-06-25T17:04:40.102Z,53.40
2018-06-25T17:07:08.336Z,53.10
2018-06-25T17:09:36.687Z,54.20
2018-06-25T17:12:04.935Z,53.30
2018-06-25T17:14:33.185Z,53.80
2018-06-25T17:17:01.400Z,53.50
2018-06-25T17:19:29.612Z,52.60
2018-06-25T17:21:57.847Z,53.50
2018-06-25T17:24:26.029Z,53.00
2018-06-25T17:26:54.277Z,53.20
2018-06-25T17:29:22.480Z,53.30
2018-06-25T17:31:50.797Z,53.30
2018-06-25T17:34:18.995Z,51.90
2018-06-25T17:36:47.211Z,52.70
2018-06-25T17:39:15.548Z,53.40
2018-06-25T17:41:43.770Z,53.60
2018-06-25T17:46:39.935Z,51.80
2018-06-25T17:49:08.155Z,52.20
2018-06-25T17:51:36.371Z,53.00
2018-06-25T17:54:04.851Z,52.30
2018-06-25T17:59:00.952Z,52.70
2018-06-25T18:01:29.110Z,51.60
2018-06-25T18:03:57.321Z,52.30
2018-06-25T18:06:25.440Z,52.60
2018-06-25T18:08:53.595Z,52.50
2018-06-25T18:11:21.968Z,52.00
2018-06-25T18:13:50.151Z,53.00
2018-06-25T18:16:18.649Z,53.60
2018-06-25T18:18:46.828Z,54.00
2018-06-25T18:21:14.987Z,53.50
2018-06-25T18:23:43.146Z,53.60
2018-06-25T18:26:11.339Z,53.70
2018-06-25T18:28:39.488Z,53.40
2018-06-25T18:31:07.750Z,53.40
2018-06-25T18:36:03.859Z,55.60
2018-06-25T18:38:32.027Z,56.50
2018-06-25T18:41:00.190Z,57.10
2018-06-25T18:43:28.362Z,57.60
2018-06-25T18:45:56.511Z,58.50
2018-06-25T18:48:24.681Z,59.10
2018-06-25T18:50:52.838Z,59.50
2018-06-25T18:55:48.955Z,59.50
2018-06-25T18:58:17.170Z,59.60
2018-06-25T19:00:45.361Z,61.60
2018-06-25T19:03:13.577Z,59.70
2018-06-25T19:05:41.791Z,59.80
2018-06-25T19:08:09.998Z,60.70
2018-06-25T19:10:38.212Z,60.60
2018-06-25T19:13:06.415Z,61.70
2018-06-25T19:15:34.658Z,62.50
2018-06-25T19:18:02.874Z,62.40
2018-06-25T19:20:31.091Z,62.50
2018-06-25T19:22:59.295Z,63.60
2018-06-25T19:27:55.445Z,63.60
2018-06-25T19:30:23.653Z,62.50
2018-06-25T19:32:51.868Z,61.30
2018-06-25T19:35:20.100Z,61.10
2018-06-25T19:37:48.336Z,60.50
2018-06-25T19:40:16.625Z,61.10
2018-06-25T19:42:45.050Z,61.40
2018-06-25T19:45:13.282Z,62.60
2018-06-25T19:47:41.490Z,63.00
2018-06-25T19:50:09.791Z,63.90
2018-06-25T19:52:38.022Z,63.50
2018-06-25T19:55:06.227Z,64.30
2018-06-25T19:57:34.393Z,64.60
2018-06-25T20:00:02.562Z,64.70
2018-06-25T20:02:30.715Z,63.10
2018-06-25T20:04:58.873Z,62.90
2018-06-25T20:07:27.040Z,63.70
2018-06-25T20:09:55.218Z,63.70
2018-06-25T20:12:23.443Z,64.70
2018-06-25T20:14:51.672Z,65.10
2018-06-25T20:17:19.827Z,65.00
2018-06-25T20:19:48.083Z,64.60
2018-06-25T20:22:16.461Z,64.00
2018-06-25T20:24:44.554Z,65.10
2018-06-25T20:27:12.756Z,66.00
2018-06-25T20:29:40.931Z,66.80
2018-06-25T20:32:09.216Z,67.60
2018-06-25T20:34:37.357Z,67.50
2018-06-25T20:37:05.531Z,67.10
2018-06-25T20:39:33.691Z,66.50
2018-06-25T20:44:29.779Z,65.90
2018-06-25T20:46:57.965Z,66.50
2018-06-25T20:49:26.098Z,66.20
2018-06-25T20:51:54.298Z,66.60
2018-06-25T20:54:22.459Z,66.40
2018-06-25T20:56:50.756Z,66.80
2018-06-25T20:59:18.915Z,66.40
2018-06-25T21:01:47.159Z,66.80
2018-06-25T21:04:15.394Z,66.90
2018-06-25T21:06:43.619Z,67.00
2018-06-25T21:09:12.658Z,67.30
2018-06-25T21:11:41.794Z,67.30
2018-06-25T21:14:10.022Z,66.90
2018-06-25T21:16:38.225Z,65.80
2018-06-25T21:19:06.461Z,65.50
2018-06-25T21:21:34.687Z,65.60
2018-06-25T21:24:02.887Z,65.30
2018-06-25T21:26:31.098Z,64.70
2018-06-25T21:28:59.305Z,65.60
2018-06-25T21:31:27.517Z,66.20
2018-06-25T21:33:55.744Z,66.60
2018-06-25T21:36:23.980Z,67.60
2018-06-25T21:38:52.167Z,68.10
2018-06-25T21:41:20.375Z,68.30
2018-06-25T21:43:48.609Z,69.00
2018-06-25T21:46:16.824Z,69.10
2018-06-25T21:48:45.391Z,68.70
2018-06-25T21:51:13.597Z,68.30
2018-06-25T21:53:41.827Z,67.80
2018-06-25T21:56:10.032Z,67.30
2018-06-25T21:58:38.174Z,67.40
2018-06-25T22:01:06.359Z,67.00
2018-06-25T22:03:34.523Z,67.00
2018-06-25T22:06:02.668Z,67.40
2018-06-25T22:08:30.844Z,67.60
2018-06-25T22:10:59.824Z,67.60
2018-06-25T22:13:27.979Z,67.50
2018-06-25T22:15:56.138Z,67.80
2018-06-25T22:18:24.285Z,68.30
2018-06-25T22:20:52.453Z,68.40
2018-06-25T22:23:20.606Z,68.80
2018-06-25T22:25:48.774Z,69.20
2018-06-25T22:28:16.929Z,69.20
2018-06-25T22:30:45.101Z,69.10
2018-06-25T22:33:13.260Z,69.30
2018-06-25T22:38:09.354Z,69.50
2018-06-25T22:40:42.274Z,69.60
2018-06-25T22:43:10.449Z,69.70
2018-06-25T22:45:38.598Z,70.60
2018-06-25T22:48:06.757Z,69.80
2018-06-25T22:50:34.926Z,70.20
2018-06-25T22:53:03.081Z,70.70
2018-06-25T22:55:33.278Z,71.10
2018-06-25T23:00:29.625Z,71.30
2018-06-25T23:02:57.783Z,71.40
2018-06-25T23:05:26.104Z,71.10
2018-06-25T23:07:54.365Z,70.40
2018-06-25T23:12:50.528Z,71.00
2018-06-25T23:15:18.687Z,71.10
2018-06-25T23:17:46.849Z,71.10
2018-06-25T23:20:15.047Z,71.30
2018-06-25T23:22:43.224Z,71.30
2018-06-25T23:25:11.407Z,71.30
2018-06-25T23:27:39.569Z,71.20
2018-06-25T23:30:07.715Z,71.60
2018-06-25T23:32:35.930Z,72.10
2018-06-25T23:35:04.106Z,72.00
2018-06-25T23:37:32.258Z,71.90
2018-06-25T23:40:00.418Z,71.60
2018-06-25T23:42:28.612Z,71.10
2018-06-25T23:44:56.767Z,71.00
2018-06-25T23:47:24.927Z,71.10
2018-06-25T23:49:53.089Z,71.20
2018-06-25T23:52:21.252Z,71.30
2018-06-25T23:54:49.400Z,71.30
2018-06-25T23:57:17.560Z,71.40
2018-06-25T23:59:45.795Z,71.40
